Time;durP1;ratioP1;P1;durP2;ratioP2;P2;SDS_P1;SDS_P2;PMS_P1;PMS_P2;Temp;Humidity;BMP_temperature;BMP_pressure;BME280_temperature;BME280_humidity;BME280_pressure;Samples;Min_cycle;Max_cycle;Signal;HPM_P1;HPM_P2
2023/10/25 00:01:43;;;;;;;68.30;10.52;;;;;;;6.49;100.00;98769.75;5052422;28;20042;-92
2023/10/25 00:04:09;;;;;;;18.52;6.13;;;;;;;6.50;100.00;98774.00;5039428;28;20039;-93
2023/10/25 00:06:34;;;;;;;46.90;9.65;;;;;;;6.55;100.00;98779.63;5056985;28;20660;-93
2023/10/25 00:09:00;;;;;;;18.23;8.00;;;;;;;6.62;100.00;98778.97;5031929;28;20036;-92
2023/10/25 00:11:26;;;;;;;36.78;8.70;;;;;;;6.73;100.00;98778.69;5047671;28;20048;-92
2023/10/25 00:13:51;;;;;;;30.02;9.43;;;;;;;6.78;100.00;98784.28;5063486;28;20043;-93
2023/10/25 00:16:17;;;;;;;16.60;8.38;;;;;;;6.85;100.00;98783.63;5050722;28;20052;-93
2023/10/25 00:18:43;;;;;;;40.50;8.63;;;;;;;6.87;100.00;98776.41;5040233;28;20036;-92
2023/10/25 00:21:09;;;;;;;16.27;8.07;;;;;;;6.91;100.00;98781.16;5042160;28;20043;-92
2023/10/25 00:23:34;;;;;;;28.50;8.38;;;;;;;6.94;100.00;98778.22;5051262;28;20053;-92
2023/10/25 00:26:00;;;;;;;56.63;8.30;;;;;;;6.93;100.00;98783.63;5064091;28;20074;-92
2023/10/25 00:28:26;;;;;;;37.88;10.13;;;;;;;6.90;100.00;98776.91;5033238;28;20039;-93
2023/10/25 00:30:52;;;;;;;45.28;10.82;;;;;;;6.81;100.00;98783.13;5034317;28;20105;-93
2023/10/25 00:33:17;;;;;;;20.40;8.98;;;;;;;6.70;100.00;98779.00;5040661;28;20043;-93
2023/10/25 00:35:43;;;;;;;66.35;9.02;;;;;;;6.64;100.00;98777.81;5047805;28;20066;-91
2023/10/25 00:38:09;;;;;;;16.13;7.28;;;;;;;6.67;100.00;98771.44;5037296;28;20043;-92
2023/10/25 00:40:35;;;;;;;13.63;7.07;;;;;;;6.72;100.00;98778.84;5086787;28;20066;-93
2023/10/25 00:43:19;;;;;;;18.13;7.53;;;;;;;6.73;100.00;98776.06;5043943;28;20036;-94
2023/10/25 00:46:11;;;;;;;22.00;7.93;;;;;;;6.65;100.00;98776.03;5076379;28;20036;-91
2023/10/25 00:48:38;;;;;;;36.75;8.32;;;;;;;6.55;100.00;98781.41;5073914;28;20476;-91
2023/10/25 00:51:04;;;;;;;29.02;7.28;;;;;;;6.50;100.00;98781.88;5047467;28;20433;-93
2023/10/25 00:53:32;;;;;;;65.50;9.38;;;;;;;6.53;100.00;98784.19;5088165;28;20082;-93
2023/10/25 00:56:00;;;;;;;38.50;7.70;;;;;;;6.48;100.00;98773.38;5042502;28;20031;-93
2023/10/25 00:58:27;;;;;;;75.38;11.75;;;;;;;6.42;100.00;98772.19;5059094;28;20036;-94
2023/10/25 01:00:55;;;;;;;46.13;7.65;;;;;;;6.31;100.00;98768.03;5055858;28;20528;-93
2023/10/25 01:03:21;;;;;;;51.67;6.85;;;;;;;6.18;100.00;98770.31;5053509;28;20036;-93
2023/10/25 01:05:47;;;;;;;79.18;9.77;;;;;;;6.05;100.00;98775.97;5058396;28;20060;-94
2023/10/25 01:08:17;;;;;;;74.05;7.00;;;;;;;6.08;100.00;98778.28;5057569;28;20063;-93
2023/10/25 01:10:43;;;;;;;48.03;7.55;;;;;;;6.13;100.00;98785.69;5040756;28;20031;-94
2023/10/25 01:13:09;;;;;;;21.13;5.18;;;;;;;6.08;100.00;98783.53;5042876;28;20032;-95
2023/10/25 01:15:34;;;;;;;125.82;7.18;;;;;;;6.03;100.00;98777.91;5076083;28;20802;-93
2023/10/25 01:18:00;;;;;;;103.55;8.77;;;;;;;5.92;100.00;98779.81;5044511;28;20031;-93
2023/10/25 01:20:26;;;;;;;149.40;8.45;;;;;;;5.87;100.00;98787.31;5054888;28;20490;-93
2023/10/25 01:22:51;;;;;;;125.72;7.95;;;;;;;5.89;100.00;98787.97;5058017;28;20055;-92
2023/10/25 01:25:17;;;;;;;112.45;8.68;;;;;;;5.96;100.00;98794.25;5050449;28;20043;-91
2023/10/25 01:27:44;;;;;;;21.00;7.78;;;;;;;6.00;100.00;98802.66;5039780;28;20031;-91
2023/10/25 01:30:10;;;;;;;22.20;5.82;;;;;;;6.14;100.00;98800.44;5057136;28;20040;-91
2023/10/25 01:32:36;;;;;;;32.03;6.93;;;;;;;6.23;100.00;98806.56;5038503;28;20491;-92
2023/10/25 01:35:02;;;;;;;25.40;6.00;;;;;;;6.27;100.00;98810.50;5036268;28;20052;-92
2023/10/25 01:37:27;;;;;;;26.05;6.93;;;;;;;6.21;100.00;98798.84;5041245;28;20032;-93
2023/10/25 01:39:53;;;;;;;20.15;5.80;;;;;;;6.23;100.00;98806.56;5084941;28;20036;-93
2023/10/25 01:42:19;;;;;;;55.55;7.63;;;;;;;6.16;100.00;98803.72;5055217;28;20047;-93
2023/10/25 01:44:44;;;;;;;75.07;7.53;;;;;;;6.08;100.00;98805.31;5035058;28;20055;-95
2023/10/25 01:50:57;;;;;;;59.30;7.25;;;;;;;5.53;100.00;98798.53;5060060;28;20036;-90
2023/10/25 01:53:23;;;;;;;133.90;9.90;;;;;;;5.49;100.00;98798.06;5050657;28;20043;-90
2023/10/25 01:55:50;;;;;;;151.55;10.15;;;;;;;5.41;100.00;98797.97;5051549;28;20453;-95
2023/10/25 01:58:16;;;;;;;159.63;8.77;;;;;;;5.39;100.00;98794.69;5041295;28;20046;-94
2023/10/25 02:00:42;;;;;;;74.15;8.30;;;;;;;5.39;100.00;98789.44;5054814;28;20055;-90
2023/10/25 02:03:07;;;;;;;115.75;10.38;;;;;;;5.42;100.00;98797.00;5038854;28;20035;-91
2023/10/25 02:25:58;;;;;;;39.10;3.60;;;;;;;5.36;100.00;98767.00;5067592;28;20060;-94
2023/10/25 02:28:24;;;;;;;17.48;3.17;;;;;;;5.44;100.00;98764.44;5034645;28;20503;-95
2023/10/25 02:30:50;;;;;;;30.08;3.15;;;;;;;5.54;100.00;98763.53;5054251;28;20039;-94
2023/10/25 02:33:16;;;;;;;17.73;2.80;;;;;;;5.62;100.00;98768.00;5068763;28;20075;-94
2023/10/25 02:35:42;;;;;;;9.10;2.40;;;;;;;5.69;100.00;98753.28;5054389;28;20036;-94
2023/10/25 02:38:07;;;;;;;50.42;2.67;;;;;;;5.78;100.00;98744.47;5060309;28;20514;-93
2023/10/25 02:40:35;;;;;;;15.20;2.58;;;;;;;5.89;100.00;98738.16;5068581;28;20819;-94
2023/10/25 02:43:01;;;;;;;10.13;2.28;;;;;;;5.88;100.00;98736.50;5056439;28;20036;-93
2023/10/25 02:45:27;;;;;;;36.85;3.00;;;;;;;5.89;100.00;98734.72;5039746;28;20377;-93
2023/10/25 02:47:55;;;;;;;47.75;3.50;;;;;;;5.85;100.00;98728.97;5053167;28;20052;-94
2023/10/25 02:50:21;;;;;;;24.45;2.58;;;;;;;5.80;100.00;98729.44;5068925;28;20261;-94
2023/10/25 02:52:48;;;;;;;17.23;2.75;;;;;;;5.84;100.00;98732.56;5054198;28;20466;-94
2023/10/25 02:55:15;;;;;;;40.30;3.20;;;;;;;5.86;100.00;98716.69;5055242;28;20071;-92
2023/10/25 02:57:42;;;;;;;62.08;4.15;;;;;;;5.86;100.00;98701.75;5036014;28;20040;-91
2023/10/25 03:00:10;;;;;;;126.25;5.93;;;;;;;5.79;100.00;98698.94;5055667;28;20547;-94
2023/10/25 03:02:36;;;;;;;118.10;6.55;;;;;;;5.66;100.00;98694.13;5054330;28;20099;-95
2023/10/25 03:05:03;;;;;;;196.20;7.15;;;;;;;5.52;100.00;98690.28;5072475;28;20119;-91
2023/10/25 03:07:28;;;;;;;234.50;10.55;;;;;;;5.43;100.00;98689.41;5055565;28;20044;-91
2023/10/25 03:09:54;;;;;;;139.02;7.30;;;;;;;5.37;100.00;98694.47;5038022;28;20092;-93
2023/10/25 03:12:20;;;;;;;82.30;4.95;;;;;;;5.37;100.00;98692.66;5027170;28;20043;-95
2023/10/25 03:14:45;;;;;;;86.55;4.40;;;;;;;5.42;100.00;98698.25;5053414;28;20365;-94
2023/10/25 03:17:11;;;;;;;84.78;4.03;;;;;;;5.52;100.00;98703.41;5037134;28;20033;-94
2023/10/25 03:19:37;;;;;;;358.23;8.68;;;;;;;5.55;100.00;98695.22;5036832;28;20552;-93
2023/10/25 03:22:03;;;;;;;293.90;9.05;;;;;;;5.52;100.00;98694.69;5055370;28;20388;-93
2023/10/25 03:24:29;;;;;;;167.15;5.72;;;;;;;5.38;100.00;98686.44;5039798;28;20140;-95
2023/10/25 03:26:56;;;;;;;174.38;5.70;;;;;;;5.33;100.00;98679.06;5032841;28;20074;-94
2023/10/25 03:29:22;;;;;;;170.20;6.60;;;;;;;5.31;100.00;98675.75;5055336;28;20032;-95
2023/10/25 03:31:47;;;;;;;92.15;4.85;;;;;;;5.36;100.00;98682.31;5035136;28;20028;-94
2023/10/25 03:34:15;;;;;;;17.08;2.78;;;;;;;5.43;100.00;98683.38;5075484;28;20039;-93
2023/10/25 03:36:40;;;;;;;40.88;3.25;;;;;;;5.40;100.00;98681.84;5036876;28;20032;-94
2023/10/25 03:39:06;;;;;;;34.05;2.67;;;;;;;5.39;100.00;98682.00;5054524;28;20028;-91
2023/10/25 03:41:32;;;;;;;50.90;3.03;;;;;;;5.42;100.00;98687.78;5053471;28;20036;-92
2023/10/25 03:43:59;;;;;;;40.75;2.45;;;;;;;5.48;100.00;98678.47;5054529;28;20089;-94
2023/10/25 03:46:24;;;;;;;22.02;2.22;;;;;;;5.50;100.00;98678.31;5041524;28;20048;-93
2023/10/25 03:48:50;;;;;;;95.57;3.35;;;;;;;5.59;100.00;98674.75;5040680;28;20039;-93
2023/10/25 03:51:16;;;;;;;16.10;1.85;;;;;;;5.64;100.00;98676.94;5037612;28;20377;-94
2023/10/25 03:53:41;;;;;;;21.90;1.80;;;;;;;5.72;100.00;98679.56;5055713;28;20040;-93
2023/10/25 03:56:07;;;;;;;30.17;2.30;;;;;;;5.78;100.00;98673.69;5074403;28;20036;-93
2023/10/25 03:58:33;;;;;;;26.50;2.13;;;;;;;5.84;100.00;98680.13;5071744;28;20050;-92
2023/10/25 04:01:01;;;;;;;36.42;2.35;;;;;;;5.91;100.00;98672.47;5050330;28;20036;-94
2023/10/25 04:03:27;;;;;;;13.73;2.13;;;;;;;5.92;100.00;98671.47;5057156;28;20079;-94
2023/10/25 04:05:53;;;;;;;61.97;2.40;;;;;;;5.91;100.00;98659.34;5053936;28;20118;-91
2023/10/25 04:08:19;;;;;;;11.68;2.13;;;;;;;5.82;100.00;98654.06;5056473;28;20134;-91
2023/10/25 04:10:57;;;;;;;14.02;1.98;;;;;;;5.90;100.00;98652.44;5038943;28;20464;-93
2023/10/25 04:13:24;;;;;;;37.72;2.30;;;;;;;5.90;100.00;98645.41;5039414;28;20107;-94
2023/10/25 04:16:02;;;;;;;47.30;3.03;;;;;;;5.97;100.00;98645.59;5074783;28;20036;-94
2023/10/25 04:18:29;;;;;;;150.70;4.10;;;;;;;5.92;100.00;98640.84;5087192;28;20535;-94
2023/10/25 04:20:56;;;;;;;51.28;2.10;;;;;;;5.92;100.00;98643.47;5053295;28;20047;-92
2023/10/25 04:23:23;;;;;;;55.10;2.25;;;;;;;5.93;100.00;98631.97;5035729;28;20039;-92
2023/10/25 04:25:49;;;;;;;75.53;4.05;;;;;;;5.94;100.00;98635.44;5075579;28;20039;-91
2023/10/25 04:28:17;;;;;;;95.05;2.42;;;;;;;5.91;100.00;98636.56;5056527;28;20375;-91
2023/10/25 04:30:43;;;;;;;31.33;1.45;;;;;;;5.88;100.00;98634.25;5041234;28;20165;-94
2023/10/25 04:33:09;;;;;;;61.83;3.00;;;;;;;5.90;100.00;98636.72;5054399;28;20043;-94
2023/10/25 04:35:35;;;;;;;138.07;4.10;;;;;;;5.88;100.00;98633.41;5072531;28;20040;-93
2023/10/25 04:38:01;;;;;;;53.50;2.42;;;;;;;5.88;100.00;98626.38;5056439;28;20377;-93
2023/10/25 04:40:26;;;;;;;28.05;1.80;;;;;;;5.83;100.00;98629.47;5034286;28;20039;-94
2023/10/25 04:42:53;;;;;;;38.95;2.00;;;;;;;5.74;100.00;98624.34;5068610;28;20040;-93
2023/10/25 04:45:20;;;;;;;57.08;2.92;;;;;;;5.68;100.00;98631.91;5050078;28;20040;-93
2023/10/25 04:47:46;;;;;;;33.28;1.90;;;;;;;5.65;100.00;98637.47;5056781;28;20025;-93
2023/10/25 04:50:11;;;;;;;10.73;1.67;;;;;;;5.69;100.00;98632.69;5080027;28;20043;-93
2023/10/25 04:52:37;;;;;;;22.05;2.00;;;;;;;5.70;100.00;98643.03;5074330;28;20032;-92
2023/10/25 04:55:03;;;;;;;22.15;1.75;;;;;;;5.67;100.00;98637.28;5055730;28;20032;-91
2023/10/25 04:57:29;;;;;;;41.58;2.22;;;;;;;5.66;100.00;98636.47;5038301;28;20072;-92
2023/10/25 04:59:55;;;;;;;21.52;2.00;;;;;;;5.67;100.00;98634.69;5073485;28;20060;-92
2023/10/25 05:02:21;;;;;;;39.08;1.90;;;;;;;5.66;100.00;98627.78;5068175;28;20043;-91
2023/10/25 05:04:47;;;;;;;34.13;1.98;;;;;;;5.68;100.00;98626.66;5064271;28;20036;-93
2023/10/25 05:07:13;;;;;;;42.15;2.83;;;;;;;5.69;100.00;98624.84;5040707;28;20111;-93
2023/10/25 05:09:39;;;;;;;22.58;2.05;;;;;;;5.69;100.00;98627.44;5062700;28;20772;-93
2023/10/25 05:12:08;;;;;;;5.68;1.75;;;;;;;5.71;100.00;98626.34;5055516;28;20036;-91
2023/10/25 05:14:35;;;;;;;12.88;1.40;;;;;;;5.71;100.00;98620.25;5055042;28;20051;-94
2023/10/25 05:17:01;;;;;;;38.88;1.73;;;;;;;5.68;100.00;98617.97;5044387;28;20036;-92
2023/10/25 05:19:27;;;;;;;5.82;1.55;;;;;;;5.69;100.00;98616.97;5063131;28;20040;-93
2023/10/25 05:21:55;;;;;;;8.75;1.77;;;;;;;5.67;100.00;98619.75;5036426;28;20032;-92
2023/10/25 05:24:21;;;;;;;4.57;1.35;;;;;;;5.64;100.00;98622.69;5061903;28;20034;-92
2023/10/25 05:26:47;;;;;;;12.88;1.40;;;;;;;5.63;100.00;98618.44;5057332;28;20052;-92
2023/10/25 05:29:13;;;;;;;20.40;2.33;;;;;;;5.64;100.00;98625.31;5056026;28;20027;-92
2023/10/25 05:31:43;;;;;;;14.98;1.63;;;;;;;5.68;100.00;98625.81;5071844;28;20040;-93
2023/10/25 05:34:10;;;;;;;10.98;1.70;;;;;;;5.63;100.00;98623.69;5056234;28;20130;-93
2023/10/25 05:36:36;;;;;;;18.58;1.83;;;;;;;5.58;100.00;98628.56;5059158;28;20047;-90
2023/10/25 05:39:03;;;;;;;57.70;2.30;;;;;;;5.56;100.00;98631.34;5055062;28;20161;-92
2023/10/25 05:41:30;;;;;;;41.45;2.08;;;;;;;5.50;100.00;98631.13;5038228;28;20064;-92
2023/10/25 05:44:13;;;;;;;32.88;2.20;;;;;;;5.50;100.00;98628.50;5049788;28;20032;-93
2023/10/25 05:46:39;;;;;;;44.13;2.33;;;;;;;5.44;100.00;98637.84;5033260;28;20036;-93
2023/10/25 05:49:05;;;;;;;31.23;1.90;;;;;;;5.37;100.00;98635.00;5040096;28;20047;-93
2023/10/25 05:51:32;;;;;;;39.13;1.85;;;;;;;5.33;100.00;98641.53;5056479;28;20345;-93
2023/10/25 05:53:58;;;;;;;55.22;1.98;;;;;;;5.27;100.00;98632.50;5051842;28;20028;-92
2023/10/25 05:56:26;;;;;;;38.28;2.00;;;;;;;5.24;100.00;98637.25;5039412;28;20040;-91
2023/10/25 05:58:56;;;;;;;61.55;2.35;;;;;;;5.24;100.00;98637.25;5052023;28;20047;-93
2023/10/25 06:01:32;;;;;;;10.88;1.67;;;;;;;5.27;100.00;98637.72;5039209;28;20139;-93
2023/10/25 06:03:59;;;;;;;23.75;2.15;;;;;;;5.27;100.00;98636.94;5053882;28;20090;-92
2023/10/25 06:06:26;;;;;;;47.20;2.08;;;;;;;5.26;100.00;98637.88;5052526;28;20400;-93
2023/10/25 06:08:52;;;;;;;42.55;1.92;;;;;;;5.23;100.00;98646.88;5049432;28;20577;-94
2023/10/25 06:11:18;;;;;;;21.48;1.65;;;;;;;5.21;100.00;98648.81;5053727;28;20031;-92
2023/10/25 06:13:44;;;;;;;7.72;1.25;;;;;;;5.17;100.00;98637.84;5076384;28;20032;-92
2023/10/25 06:16:10;;;;;;;7.15;1.38;;;;;;;5.19;100.00;98654.22;5053301;28;20036;-93
2023/10/25 06:18:35;;;;;;;5.95;1.40;;;;;;;5.20;100.00;98650.66;5039951;28;20036;-92
2023/10/25 06:21:01;;;;;;;6.88;1.35;;;;;;;5.19;100.00;98653.41;5053560;28;20043;-91
2023/10/25 06:23:27;;;;;;;2.00;1.40;;;;;;;5.17;100.00;98648.34;5068952;28;20040;-91
2023/10/25 06:25:53;;;;;;;14.80;1.40;;;;;;;5.15;100.00;98638.97;5054227;28;20062;-91
2023/10/25 06:28:18;;;;;;;25.83;1.95;;;;;;;5.12;100.00;98642.72;5053570;28;20451;-92
2023/10/25 06:30:45;;;;;;;14.95;1.40;;;;;;;5.10;100.00;98642.03;5050996;28;20043;-91
2023/10/25 06:33:11;;;;;;;69.93;2.13;;;;;;;5.08;100.00;98633.53;5049905;28;20032;-91
2023/10/25 06:35:37;;;;;;;1.95;1.20;;;;;;;5.05;100.00;98637.28;5055252;28;20052;-93
2023/10/25 06:38:03;;;;;;;5.28;1.13;;;;;;;4.95;100.00;98636.56;5033277;28;20033;-92
2023/10/25 06:40:29;;;;;;;12.48;1.65;;;;;;;4.87;100.00;98639.94;5032012;28;20054;-93
2023/10/25 06:42:55;;;;;;;42.50;1.95;;;;;;;4.81;100.00;98638.75;5035636;28;20039;-93
2023/10/25 06:45:21;;;;;;;19.10;1.67;;;;;;;4.77;100.00;98647.03;5046745;28;20082;-91
2023/10/25 06:47:47;;;;;;;6.63;1.25;;;;;;;4.88;100.00;98646.81;5051500;28;20055;-91
2023/10/25 06:50:14;;;;;;;7.28;1.42;;;;;;;4.94;100.00;98654.06;5031877;28;20047;-91
2023/10/25 06:52:40;;;;;;;10.13;1.52;;;;;;;4.94;100.00;98651.44;5049434;28;20099;-91
2023/10/25 06:55:07;;;;;;;32.15;1.80;;;;;;;4.88;100.00;98653.84;5048811;28;20032;-91
2023/10/25 06:57:34;;;;;;;26.15;1.60;;;;;;;4.81;100.00;98661.50;5034453;28;20163;-90
2023/10/25 07:00:00;;;;;;;32.40;1.65;;;;;;;4.74;100.00;98655.19;5037024;28;20032;-91
2023/10/25 07:02:33;;;;;;;49.25;2.10;;;;;;;4.67;100.00;98655.81;5030750;28;20440;-91
2023/10/25 07:05:09;;;;;;;54.28;2.35;;;;;;;4.58;100.00;98654.09;5044135;28;20052;-94
2023/10/25 07:07:35;;;;;;;62.22;2.47;;;;;;;4.51;100.00;98659.09;5036973;28;20040;-93
2023/10/25 07:10:01;;;;;;;7.03;1.70;;;;;;;4.55;100.00;98659.63;5074839;28;20562;-92
2023/10/25 07:12:30;;;;;;;18.30;1.88;;;;;;;4.56;100.00;98664.72;5055321;28;20027;-89
2023/10/25 07:14:56;;;;;;;49.03;2.33;;;;;;;4.61;100.00;98664.25;5054844;28;20032;-92
2023/10/25 07:17:21;;;;;;;4.65;1.83;;;;;;;4.65;100.00;98660.34;5073574;28;20032;-93
2023/10/25 07:19:47;;;;;;;37.03;2.15;;;;;;;4.67;100.00;98660.22;5053326;28;20032;-92
2023/10/25 07:22:13;;;;;;;92.80;2.50;;;;;;;4.69;100.00;98653.88;5040213;28;20028;-92
2023/10/25 07:24:38;;;;;;;99.30;2.90;;;;;;;4.74;100.00;98657.81;5056893;28;20035;-91
2023/10/25 07:27:04;;;;;;;53.95;2.30;;;;;;;4.76;100.00;98658.50;5055572;28;20048;-89
2023/10/25 07:29:31;;;;;;;23.38;2.42;;;;;;;4.78;100.00;98661.81;5047440;28;20037;-91
2023/10/25 07:31:56;;;;;;;23.77;1.80;;;;;;;4.79;100.00;98659.03;5036746;28;20033;-91
2023/10/25 07:34:22;;;;;;;9.32;1.50;;;;;;;4.74;100.00;98660.44;5070811;28;20040;-93
2023/10/25 07:36:48;;;;;;;13.77;1.77;;;;;;;4.76;100.00;98661.91;5034743;28;20066;-92
2023/10/25 07:39:15;;;;;;;21.33;1.70;;;;;;;4.79;100.00;98666.88;5054760;28;20036;-94
2023/10/25 07:41:41;;;;;;;59.92;2.22;;;;;;;4.87;100.00;98667.91;5038068;28;20032;-93
2023/10/25 07:44:07;;;;;;;71.45;2.05;;;;;;;4.90;100.00;98663.19;5031619;28;20032;-93
2023/10/25 07:46:33;;;;;;;6.07;1.30;;;;;;;4.90;100.00;98670.22;5046065;28;20036;-93
2023/10/25 07:48:59;;;;;;;32.80;1.65;;;;;;;4.89;100.00;98666.78;5058305;28;20047;-92
2023/10/25 07:51:25;;;;;;;74.35;2.28;;;;;;;4.92;100.00;98663.03;5063209;28;20040;-92
2023/10/25 07:53:50;;;;;;;25.42;1.63;;;;;;;4.90;100.00;98667.59;5042092;28;20780;-93
2023/10/25 07:56:18;;;;;;;32.05;2.03;;;;;;;4.93;100.00;98670.75;5059100;28;20399;-93
2023/10/25 07:58:44;;;;;;;127.20;4.03;;;;;;;4.93;100.00;98670.75;5055589;28;20051;-93
2023/10/25 08:01:11;;;;;;;87.95;3.00;;;;;;;4.92;100.00;98670.91;5031927;28;20041;-92
2023/10/25 08:03:37;;;;;;;69.85;3.40;;;;;;;4.93;100.00;98672.53;5051467;28;20530;-92
2023/10/25 08:06:02;;;;;;;72.70;3.30;;;;;;;4.96;100.00;98675.69;5055339;28;20040;-92
2023/10/25 08:08:28;;;;;;;17.25;2.55;;;;;;;5.03;100.00;98675.06;5050809;28;20092;-92
2023/10/25 08:11:01;;;;;;;48.53;3.40;;;;;;;5.06;100.00;98680.84;5048716;28;20078;-93
2023/10/25 08:13:27;;;;;;;48.95;2.70;;;;;;;5.04;100.00;98674.09;5050536;28;20036;-92
2023/10/25 08:16:01;;;;;;;41.03;2.80;;;;;;;5.15;100.00;98670.41;5048249;28;20072;-93
2023/10/25 08:18:28;;;;;;;33.28;2.10;;;;;;;5.15;100.00;98670.41;5064699;28;20135;-94
2023/10/25 08:20:55;;;;;;;16.50;2.00;;;;;;;5.20;100.00;98668.16;5048198;28;20499;-93
2023/10/25 08:23:21;;;;;;;71.75;3.22;;;;;;;5.22;100.00;98671.44;5047719;28;20046;-93
2023/10/25 08:25:47;;;;;;;37.85;2.45;;;;;;;5.22;100.00;98674.88;5048952;28;20288;-93
2023/10/25 08:28:13;;;;;;;44.95;2.53;;;;;;;5.23;100.00;98670.47;5052943;28;20035;-93
2023/10/25 08:30:39;;;;;;;5.38;1.48;;;;;;;5.26;100.00;98657.06;5058843;28;20070;-90
2023/10/25 08:33:04;;;;;;;14.40;1.80;;;;;;;5.33;100.00;98667.75;5037363;28;20040;-91
2023/10/25 08:35:30;;;;;;;21.02;1.88;;;;;;;5.37;100.00;98669.06;5063454;28;20031;-88
2023/10/25 08:37:56;;;;;;;17.50;1.70;;;;;;;5.43;100.00;98667.66;5034230;28;20094;-93
2023/10/25 08:40:24;;;;;;;14.77;1.75;;;;;;;5.55;100.00;98674.25;5039463;28;20036;-95
2023/10/25 08:42:50;;;;;;;4.30;1.25;;;;;;;5.55;100.00;98676.03;5054769;28;20047;-93
2023/10/25 08:45:16;;;;;;;8.30;1.30;;;;;;;5.61;100.00;98667.56;5044758;28;20029;-91
2023/10/25 08:47:43;;;;;;;74.90;2.65;;;;;;;5.64;100.00;98674.31;5048708;28;20043;-90
2023/10/25 08:50:10;;;;;;;37.58;2.50;;;;;;;5.62;100.00;98671.00;5035056;28;20468;-94
2023/10/25 08:52:39;;;;;;;175.57;7.68;;;;;;;5.59;100.00;98669.50;5037363;28;20036;-94
2023/10/25 08:55:11;;;;;;;82.18;5.55;;;;;;;5.61;100.00;98678.03;5049592;28;20047;-95
2023/10/25 08:57:40;;;;;;;25.85;2.55;;;;;;;5.62;100.00;98673.63;5055996;28;20054;-94
2023/10/25 09:00:10;;;;;;;62.83;3.80;;;;;;;5.61;100.00;98675.41;5040364;28;20032;-94
2023/10/25 09:02:37;;;;;;;31.70;2.38;;;;;;;5.65;100.00;98674.16;5038969;28;20115;-94
2023/10/25 09:05:03;;;;;;;158.98;5.75;;;;;;;5.69;100.00;98670.22;5032722;28;20032;-90
2023/10/25 09:07:30;;;;;;;94.35;2.95;;;;;;;5.76;100.00;98664.34;5033380;28;20481;-90
2023/10/25 09:09:57;;;;;;;79.68;4.57;;;;;;;5.87;100.00;98669.31;5068001;28;20035;-95
2023/10/25 09:12:24;;;;;;;1.63;1.50;;;;;;;5.93;100.00;98670.47;5042922;28;20032;-93
2023/10/25 09:14:50;;;;;;;78.80;4.07;;;;;;;5.96;100.00;98667.53;5050752;28;20036;-93
2023/10/25 09:17:16;;;;;;;13.10;1.83;;;;;;;6.05;100.00;98666.63;5052854;28;20040;-93
2023/10/25 09:19:47;;;;;;;173.05;6.60;;;;;;;6.10;100.00;98663.50;5037135;28;20043;-95
2023/10/25 09:22:19;;;;;;;19.92;2.53;;;;;;;6.22;100.00;98657.97;5031468;28;20047;-94
2023/10/25 09:24:49;;;;;;;102.13;4.30;;;;;;;6.26;100.00;98661.94;5044699;28;20033;-91
2023/10/25 09:27:16;;;;;;;150.18;5.18;;;;;;;6.17;100.00;98647.97;5047437;28;20056;-90
2023/10/25 09:29:42;;;;;;;276.38;9.90;;;;;;;6.06;100.00;98649.09;5060801;28;20123;-95
2023/10/25 09:32:08;;;;;;;258.55;12.43;;;;;;;6.03;100.00;98652.81;5029139;28;20020;-95
2023/10/25 09:34:34;;;;;;;289.15;12.77;;;;;;;6.10;100.00;98653.03;5023898;28;20036;-90
2023/10/25 09:37:01;;;;;;;435.20;14.38;;;;;;;6.12;100.00;98643.19;5051472;28;20036;-90
2023/10/25 09:39:26;;;;;;;209.20;7.78;;;;;;;6.21;100.00;98646.69;5081417;28;20535;-95
2023/10/25 09:41:53;;;;;;;134.50;5.05;;;;;;;6.27;100.00;98647.81;5050502;28;20150;-94
2023/10/25 09:44:23;;;;;;;45.83;3.67;;;;;;;6.36;100.00;98646.84;5050765;28;20039;-90
2023/10/25 09:46:52;;;;;;;30.08;3.47;;;;;;;6.51;100.00;98640.97;5059530;28;20068;-90
2023/10/25 09:49:27;;;;;;;114.18;6.22;;;;;;;6.64;100.00;98637.88;5068940;28;20057;-95
2023/10/25 09:52:06;;;;;;;57.50;5.00;;;;;;;6.70;100.00;98638.00;5069016;28;20029;-94
2023/10/25 09:54:34;;;;;;;15.55;5.55;;;;;;;6.77;100.00;98629.50;5040991;28;20046;-94
2023/10/25 09:57:07;;;;;;;4.93;4.43;;;;;;;6.83;100.00;98627.03;5065401;28;20058;-95
2023/10/25 09:59:34;;;;;;;6.78;4.68;;;;;;;6.91;100.00;98625.41;5049134;28;20181;-93
2023/10/25 10:02:02;;;;;;;4.55;4.13;;;;;;;7.01;100.00;98614.69;5053387;28;20039;-94
2023/10/25 10:04:31;;;;;;;7.20;5.30;;;;;;;7.06;100.00;98613.22;5052815;28;20032;-90
2023/10/25 10:07:13;;;;;;;8.32;5.15;;;;;;;7.09;100.00;98611.25;5035091;28;20032;-90
2023/10/25 10:10:19;;;;;;;7.32;5.30;;;;;;;7.03;100.00;98613.56;5034659;28;20040;-94
2023/10/25 10:12:44;;;;;;;8.20;4.22;;;;;;;6.92;100.00;98603.38;5041119;28;20044;-94
2023/10/25 10:15:12;;;;;;;7.60;4.72;;;;;;;6.95;100.00;98600.44;5036459;28;20666;-90
2023/10/25 10:17:43;;;;;;;10.70;5.05;;;;;;;7.05;100.00;98590.56;5048106;28;20063;-91
2023/10/25 10:20:28;;;;;;;5.45;4.93;;;;;;;7.15;100.00;98598.25;5029577;28;20040;-91
2023/10/25 10:23:03;;;;;;;8.25;5.85;;;;;;;7.23;100.00;98592.16;5049611;28;20488;-90
2023/10/25 10:25:47;;;;;;;7.07;5.70;;;;;;;7.25;100.00;98592.81;5052254;28;20080;-94
2023/10/25 10:28:14;;;;;;;7.47;5.75;;;;;;;7.24;100.00;98585.09;5033175;28;20553;-93
2023/10/25 10:30:41;;;;;;;6.93;5.55;;;;;;;7.32;100.00;98588.53;5031200;28;20047;-91
2023/10/25 10:33:10;;;;;;;7.72;4.53;;;;;;;7.37;100.00;98569.63;5051450;28;20135;-90
2023/10/25 10:35:44;;;;;;;8.27;5.90;;;;;;;7.49;100.00;98562.16;5038066;28;20118;-95
2023/10/25 10:38:10;;;;;;;11.50;5.25;;;;;;;7.48;100.00;98554.44;5051157;28;20031;-95
2023/10/25 10:40:36;;;;;;;8.90;6.07;;;;;;;7.59;100.00;98555.88;5048067;28;20035;-94
2023/10/25 10:43:02;;;;;;;6.97;4.65;;;;;;;7.74;100.00;98558.63;5071507;28;20036;-94
2023/10/25 10:45:29;;;;;;;7.40;5.05;;;;;;;7.87;100.00;98561.47;5032107;28;20035;-94
2023/10/25 10:48:05;;;;;;;9.63;5.22;;;;;;;7.98;100.00;98556.84;5042886;28;20036;-93
2023/10/25 10:50:31;;;;;;;7.80;5.78;;;;;;;8.12;100.00;98557.88;5060745;28;20378;-90
2023/10/25 10:52:58;;;;;;;6.28;5.68;;;;;;;8.21;100.00;98546.31;5052726;28;20098;-91
2023/10/25 10:55:25;;;;;;;8.63;5.68;;;;;;;8.37;100.00;98544.53;5067362;28;20036;-90
2023/10/25 10:57:52;;;;;;;6.90;5.40;;;;;;;8.53;100.00;98543.59;5035121;28;20222;-90
2023/10/25 11:00:19;;;;;;;7.88;6.57;;;;;;;8.65;100.00;98533.44;5035113;28;20036;-93
2023/10/25 11:02:46;;;;;;;6.60;5.57;;;;;;;8.79;100.00;98537.13;5049808;28;20042;-93
2023/10/25 11:05:15;;;;;;;9.93;5.70;;;;;;;8.83;100.00;98524.41;5071354;28;20097;-93
2023/10/25 11:07:42;;;;;;;9.35;5.57;;;;;;;8.93;100.00;98524.97;5070821;28;20035;-91
2023/10/25 11:10:11;;;;;;;7.90;5.70;;;;;;;9.03;100.00;98522.06;5056814;28;20044;-93
2023/10/25 11:12:37;;;;;;;10.10;5.70;;;;;;;9.01;100.00;98522.25;5046541;28;20543;-93
2023/10/25 11:15:07;;;;;;;9.50;5.45;;;;;;;9.16;100.00;98524.03;5034682;28;20435;-91
2023/10/25 11:17:36;;;;;;;10.32;6.25;;;;;;;9.25;100.00;98511.59;5049857;28;20034;-91
2023/10/25 11:20:02;;;;;;;10.32;6.65;;;;;;;9.26;100.00;98502.66;5053240;28;20032;-93
2023/10/25 11:22:31;;;;;;;8.68;6.75;;;;;;;9.34;100.00;98499.94;5039776;28;20123;-93
2023/10/25 11:24:58;;;;;;;9.60;6.15;;;;;;;9.49;100.00;98499.09;5058077;28;20078;-92
2023/10/25 11:27:31;;;;;;;10.93;6.53;;;;;;;9.63;100.00;98505.34;5072775;28;20051;-93
2023/10/25 11:29:58;;;;;;;12.18;6.10;;;;;;;9.70;100.00;98502.78;5034728;28;20032;-90
2023/10/25 11:32:23;;;;;;;9.73;5.78;;;;;;;9.81;100.00;98507.53;5039249;28;20201;-90
2023/10/25 11:34:56;;;;;;;8.80;4.80;;;;;;;9.94;100.00;98493.66;5035489;28;20127;-93
2023/10/25 11:37:26;;;;;;;11.25;4.43;;;;;;;10.06;100.00;98499.25;5053514;28;20032;-92
2023/10/25 11:39:56;;;;;;;11.90;5.30;;;;;;;10.18;100.00;98496.91;5040274;28;20046;-92
2023/10/25 11:42:25;;;;;;;8.70;4.60;;;;;;;10.24;100.00;98490.88;5037058;28;20128;-93
2023/10/25 11:44:54;;;;;;;6.13;4.60;;;;;;;10.34;100.00;98493.19;5041542;28;20126;-92
2023/10/25 11:47:22;;;;;;;9.80;4.22;;;;;;;10.46;100.00;98490.88;5038526;28;20032;-93
2023/10/25 11:49:53;;;;;;;8.88;4.38;;;;;;;10.51;100.00;98483.19;5054757;28;20039;-92